sensor_id;sensor_type;location;lat;lon;timestamp;P1;durP1;ratioP1;P2;durP2;ratioP2
21814;SDS011;11069;48.988;8.450;2023-05-07T00:00:52;4.65;;;3.90;;
21814;SDS011;11069;48.988;8.450;2023-05-07T00:03:18;4.07;;;3.33;;
21814;SDS011;11069;48.988;8.450;2023-05-07T00:05:45;4.50;;;3.45;;
21814;SDS011;11069;48.988;8.450;2023-05-07T00:08:11;4.05;;;3.60;;
21814;SDS011;11069;48.988;8.450;2023-05-07T00:10:37;5.30;;;3.63;;
21814;SDS011;11069;48.988;8.450;2023-05-07T00:13:03;4.95;;;3.50;;
21814;SDS011;11069;48.988;8.450;2023-05-07T00:15:29;6.60;;;3.55;;
21814;SDS011;11069;48.988;8.450;2023-05-07T00:17:55;4.07;;;3.40;;
21814;SDS011;11069;48.988;8.450;2023-05-07T00:20:26;4.20;;;3.67;;
21814;SDS011;11069;48.988;8.450;2023-05-07T00:22:52;3.97;;;3.20;;
21814;SDS011;11069;48.988;8.450;2023-05-07T00:25:18;5.60;;;3.65;;
21814;SDS011;11069;48.988;8.450;2023-05-07T00:27:44;3.47;;;2.95;;
21814;SDS011;11069;48.988;8.450;2023-05-07T00:30:10;5.45;;;3.17;;
21814;SDS011;11069;48.988;8.450;2023-05-07T00:32:36;3.03;;;2.75;;
21814;SDS011;11069;48.988;8.450;2023-05-07T00:35:03;3.00;;;2.70;;
21814;SDS011;11069;48.988;8.450;2023-05-07T00:37:29;4.07;;;3.15;;
21814;SDS011;11069;48.988;8.450;2023-05-07T00:39:55;4.15;;;3.40;;
21814;SDS011;11069;48.988;8.450;2023-05-07T00:42:21;4.07;;;3.22;;
21814;SDS011;11069;48.988;8.450;2023-05-07T00:44:47;4.32;;;2.85;;
21814;SDS011;11069;48.988;8.450;2023-05-07T00:47:13;3.40;;;3.10;;
21814;SDS011;11069;48.988;8.450;2023-05-07T00:49:42;4.13;;;2.58;;
21814;SDS011;11069;48.988;8.450;2023-05-07T00:52:15;3.10;;;2.80;;
21814;SDS011;11069;48.988;8.450;2023-05-07T00:54:41;4.00;;;2.90;;
21814;SDS011;11069;48.988;8.450;2023-05-07T00:57:09;8.32;;;2.60;;
21814;SDS011;11069;48.988;8.450;2023-05-07T00:59:36;7.05;;;2.60;;
21814;SDS011;11069;48.988;8.450;2023-05-07T01:02:02;5.47;;;2.88;;
21814;SDS011;11069;48.988;8.450;2023-05-07T01:04:28;3.65;;;2.92;;
21814;SDS011;11069;48.988;8.450;2023-05-07T01:06:54;2.60;;;2.40;;
21814;SDS011;11069;48.988;8.450;2023-05-07T01:09:21;3.60;;;2.90;;
21814;SDS011;11069;48.988;8.450;2023-05-07T01:11:47;2.83;;;2.55;;
21814;SDS011;11069;48.988;8.450;2023-05-07T01:14:15;5.22;;;3.30;;
21814;SDS011;11069;48.988;8.450;2023-05-07T01:16:41;3.95;;;3.00;;
21814;SDS011;11069;48.988;8.450;2023-05-07T01:19:07;3.33;;;2.83;;
21814;SDS011;11069;48.988;8.450;2023-05-07T01:21:35;3.05;;;2.55;;
21814;SDS011;11069;48.988;8.450;2023-05-07T01:24:03;3.97;;;3.05;;
21814;SDS011;11069;48.988;8.450;2023-05-07T01:26:30;3.97;;;2.92;;
21814;SDS011;11069;48.988;8.450;2023-05-07T01:28:56;6.35;;;3.35;;
21814;SDS011;11069;48.988;8.450;2023-05-07T01:31:22;5.35;;;3.03;;
21814;SDS011;11069;48.988;8.450;2023-05-07T01:33:49;3.95;;;3.03;;
21814;SDS011;11069;48.988;8.450;2023-05-07T01:36:17;4.63;;;2.90;;
21814;SDS011;11069;48.988;8.450;2023-05-07T01:38:43;4.38;;;3.08;;
21814;SDS011;11069;48.988;8.450;2023-05-07T01:41:11;4.80;;;3.00;;
21814;SDS011;11069;48.988;8.450;2023-05-07T01:43:38;3.22;;;2.70;;
21814;SDS011;11069;48.988;8.450;2023-05-07T01:46:06;4.95;;;3.20;;
21814;SDS011;11069;48.988;8.450;2023-05-07T01:48:32;6.55;;;2.95;;
21814;SDS011;11069;48.988;8.450;2023-05-07T01:50:58;5.50;;;3.17;;
21814;SDS011;11069;48.988;8.450;2023-05-07T01:53:26;7.32;;;3.53;;
21814;SDS011;11069;48.988;8.450;2023-05-07T01:55:52;3.55;;;2.83;;
21814;SDS011;11069;48.988;8.450;2023-05-07T01:58:18;3.47;;;2.70;;
21814;SDS011;11069;48.988;8.450;2023-05-07T02:00:44;3.58;;;3.00;;
21814;SDS011;11069;48.988;8.450;2023-05-07T02:03:11;4.15;;;3.00;;
21814;SDS011;11069;48.988;8.450;2023-05-07T02:05:37;6.88;;;3.00;;
21814;SDS011;11069;48.988;8.450;2023-05-07T02:08:03;3.25;;;2.78;;
21814;SDS011;11069;48.988;8.450;2023-05-07T02:10:29;4.05;;;2.97;;
21814;SDS011;11069;48.988;8.450;2023-05-07T02:12:55;3.38;;;3.05;;
21814;SDS011;11069;48.988;8.450;2023-05-07T02:15:21;4.07;;;2.67;;
21814;SDS011;11069;48.988;8.450;2023-05-07T02:18:00;2.75;;;2.47;;
21814;SDS011;11069;48.988;8.450;2023-05-07T02:20:26;3.92;;;3.13;;
21814;SDS011;11069;48.988;8.450;2023-05-07T02:22:52;2.50;;;2.30;;
21814;SDS011;11069;48.988;8.450;2023-05-07T02:25:18;3.42;;;2.90;;
21814;SDS011;11069;48.988;8.450;2023-05-07T02:27:44;3.08;;;2.78;;
21814;SDS011;11069;48.988;8.450;2023-05-07T02:30:10;3.55;;;2.67;;
21814;SDS011;11069;48.988;8.450;2023-05-07T02:32:36;5.22;;;2.75;;
21814;SDS011;11069;48.988;8.450;2023-05-07T02:35:02;4.57;;;2.88;;
21814;SDS011;11069;48.988;8.450;2023-05-07T02:37:28;3.83;;;2.65;;
21814;SDS011;11069;48.988;8.450;2023-05-07T02:39:54;4.15;;;2.60;;
21814;SDS011;11069;48.988;8.450;2023-05-07T02:42:20;3.20;;;2.70;;
21814;SDS011;11069;48.988;8.450;2023-05-07T02:44:46;3.90;;;2.85;;
21814;SDS011;11069;48.988;8.450;2023-05-07T02:47:13;4.35;;;3.03;;
21814;SDS011;11069;48.988;8.450;2023-05-07T02:49:39;2.72;;;2.33;;
21814;SDS011;11069;48.988;8.450;2023-05-07T02:52:05;4.15;;;2.65;;
21814;SDS011;11069;48.988;8.450;2023-05-07T02:54:31;3.50;;;2.90;;
21814;SDS011;11069;48.988;8.450;2023-05-07T02:56:57;3.28;;;2.90;;
21814;SDS011;11069;48.988;8.450;2023-05-07T02:59:23;4.00;;;3.20;;
21814;SDS011;11069;48.988;8.450;2023-05-07T03:01:51;6.70;;;3.20;;
21814;SDS011;11069;48.988;8.450;2023-05-07T03:04:17;3.78;;;3.22;;
21814;SDS011;11069;48.988;8.450;2023-05-07T03:06:43;4.25;;;3.33;;
21814;SDS011;11069;48.988;8.450;2023-05-07T03:09:09;3.30;;;2.88;;
21814;SDS011;11069;48.988;8.450;2023-05-07T03:11:35;6.65;;;3.30;;
21814;SDS011;11069;48.988;8.450;2023-05-07T03:14:01;4.55;;;3.33;;
21814;SDS011;11069;48.988;8.450;2023-05-07T03:16:27;5.72;;;3.33;;
21814;SDS011;11069;48.988;8.450;2023-05-07T03:18:53;5.57;;;3.00;;
21814;SDS011;11069;48.988;8.450;2023-05-07T03:21:19;5.55;;;3.30;;
21814;SDS011;11069;48.988;8.450;2023-05-07T03:23:45;4.25;;;2.90;;
21814;SDS011;11069;48.988;8.450;2023-05-07T03:26:11;6.03;;;3.42;;
21814;SDS011;11069;48.988;8.450;2023-05-07T03:28:37;3.00;;;2.80;;
21814;SDS011;11069;48.988;8.450;2023-05-07T03:31:03;5.10;;;2.95;;
21814;SDS011;11069;48.988;8.450;2023-05-07T03:33:30;4.38;;;2.88;;
21814;SDS011;11069;48.988;8.450;2023-05-07T03:35:56;3.53;;;3.00;;
21814;SDS011;11069;48.988;8.450;2023-05-07T03:38:22;4.57;;;3.30;;
21814;SDS011;11069;48.988;8.450;2023-05-07T03:40:48;5.25;;;3.00;;
21814;SDS011;11069;48.988;8.450;2023-05-07T03:43:13;4.43;;;2.90;;
21814;SDS011;11069;48.988;8.450;2023-05-07T03:45:40;4.75;;;2.97;;
21814;SDS011;11069;48.988;8.450;2023-05-07T03:48:06;7.07;;;3.17;;
21814;SDS011;11069;48.988;8.450;2023-05-07T03:50:31;3.78;;;2.90;;
21814;SDS011;11069;48.988;8.450;2023-05-07T03:52:57;4.10;;;2.97;;
21814;SDS011;11069;48.988;8.450;2023-05-07T03:55:23;4.15;;;2.90;;
21814;SDS011;11069;48.988;8.450;2023-05-07T03:57:50;3.85;;;3.10;;
21814;SDS011;11069;48.988;8.450;2023-05-07T04:00:16;3.60;;;2.88;;
21814;SDS011;11069;48.988;8.450;2023-05-07T04:02:42;3.30;;;3.00;;
21814;SDS011;11069;48.988;8.450;2023-05-07T04:05:08;4.03;;;2.90;;
21814;SDS011;11069;48.988;8.450;2023-05-07T04:07:34;3.83;;;3.05;;
21814;SDS011;11069;48.988;8.450;2023-05-07T04:10:00;3.40;;;3.08;;
21814;SDS011;11069;48.988;8.450;2023-05-07T04:12:26;4.80;;;3.25;;
21814;SDS011;11069;48.988;8.450;2023-05-07T04:14:52;3.95;;;3.00;;
21814;SDS011;11069;48.988;8.450;2023-05-07T04:17:18;4.35;;;3.03;;
21814;SDS011;11069;48.988;8.450;2023-05-07T04:19:44;4.78;;;3.80;;
21814;SDS011;11069;48.988;8.450;2023-05-07T04:22:10;4.38;;;3.92;;
21814;SDS011;11069;48.988;8.450;2023-05-07T04:24:37;6.38;;;4.22;;
21814;SDS011;11069;48.988;8.450;2023-05-07T04:27:03;4.20;;;3.80;;
21814;SDS011;11069;48.988;8.450;2023-05-07T04:29:29;5.70;;;3.85;;
21814;SDS011;11069;48.988;8.450;2023-05-07T04:31:55;4.35;;;3.85;;
21814;SDS011;11069;48.988;8.450;2023-05-07T04:34:21;4.15;;;3.75;;
21814;SDS011;11069;48.988;8.450;2023-05-07T04:36:47;4.20;;;3.80;;
21814;SDS011;11069;48.988;8.450;2023-05-07T04:39:13;6.07;;;4.00;;
21814;SDS011;11069;48.988;8.450;2023-05-07T04:41:39;7.10;;;4.47;;
21814;SDS011;11069;48.988;8.450;2023-05-07T04:44:05;5.97;;;4.47;;
21814;SDS011;11069;48.988;8.450;2023-05-07T04:46:31;4.90;;;4.20;;
21814;SDS011;11069;48.988;8.450;2023-05-07T04:48:57;5.95;;;4.20;;
21814;SDS011;11069;48.988;8.450;2023-05-07T04:51:23;4.97;;;4.13;;
21814;SDS011;11069;48.988;8.450;2023-05-07T04:53:50;4.85;;;4.35;;
21814;SDS011;11069;48.988;8.450;2023-05-07T04:56:16;4.90;;;3.97;;
21814;SDS011;11069;48.988;8.450;2023-05-07T04:58:42;5.07;;;4.10;;
21814;SDS011;11069;48.988;8.450;2023-05-07T05:01:08;4.25;;;3.85;;
21814;SDS011;11069;48.988;8.450;2023-05-07T05:03:34;8.10;;;3.88;;
21814;SDS011;11069;48.988;8.450;2023-05-07T05:06:00;4.35;;;3.78;;
21814;SDS011;11069;48.988;8.450;2023-05-07T05:08:29;6.43;;;3.70;;
21814;SDS011;11069;48.988;8.450;2023-05-07T05:10:56;4.88;;;3.28;;
21814;SDS011;11069;48.988;8.450;2023-05-07T05:13:22;4.20;;;3.00;;
21814;SDS011;11069;48.988;8.450;2023-05-07T05:15:48;3.85;;;3.25;;
21814;SDS011;11069;48.988;8.450;2023-05-07T05:18:20;3.22;;;2.85;;
21814;SDS011;11069;48.988;8.450;2023-05-07T05:21:11;3.70;;;2.55;;
21814;SDS011;11069;48.988;8.450;2023-05-07T05:23:37;4.45;;;3.28;;
21814;SDS011;11069;48.988;8.450;2023-05-07T05:26:03;4.20;;;3.00;;
21814;SDS011;11069;48.988;8.450;2023-05-07T05:28:29;3.97;;;3.05;;
21814;SDS011;11069;48.988;8.450;2023-05-07T05:30:55;4.13;;;3.25;;
21814;SDS011;11069;48.988;8.450;2023-05-07T05:33:21;3.28;;;2.70;;
21814;SDS011;11069;48.988;8.450;2023-05-07T05:35:48;3.70;;;3.30;;
21814;SDS011;11069;48.988;8.450;2023-05-07T05:38:15;4.22;;;3.40;;
21814;SDS011;11069;48.988;8.450;2023-05-07T05:40:41;4.60;;;3.17;;
21814;SDS011;11069;48.988;8.450;2023-05-07T05:43:07;3.65;;;3.10;;
21814;SDS011;11069;48.988;8.450;2023-05-07T05:45:33;3.10;;;2.80;;
21814;SDS011;11069;48.988;8.450;2023-05-07T05:47:59;3.80;;;3.10;;
21814;SDS011;11069;48.988;8.450;2023-05-07T05:50:25;3.88;;;3.05;;
21814;SDS011;11069;48.988;8.450;2023-05-07T05:52:51;4.32;;;3.30;;
21814;SDS011;11069;48.988;8.450;2023-05-07T05:55:17;3.42;;;2.80;;
21814;SDS011;11069;48.988;8.450;2023-05-07T05:57:43;4.57;;;3.40;;
21814;SDS011;11069;48.988;8.450;2023-05-07T06:00:09;5.10;;;3.30;;
21814;SDS011;11069;48.988;8.450;2023-05-07T06:02:35;4.55;;;3.53;;
21814;SDS011;11069;48.988;8.450;2023-05-07T06:05:01;4.35;;;2.92;;
21814;SDS011;11069;48.988;8.450;2023-05-07T06:07:27;6.28;;;3.10;;
21814;SDS011;11069;48.988;8.450;2023-05-07T06:09:53;3.83;;;3.45;;
21814;SDS011;11069;48.988;8.450;2023-05-07T06:12:20;4.43;;;3.47;;
21814;SDS011;11069;48.988;8.450;2023-05-07T06:14:46;3.85;;;3.45;;
21814;SDS011;11069;48.988;8.450;2023-05-07T06:17:12;4.97;;;3.22;;
21814;SDS011;11069;48.988;8.450;2023-05-07T06:19:38;5.03;;;3.50;;
21814;SDS011;11069;48.988;8.450;2023-05-07T06:22:04;4.20;;;3.17;;
21814;SDS011;11069;48.988;8.450;2023-05-07T06:24:30;3.85;;;3.13;;
21814;SDS011;11069;48.988;8.450;2023-05-07T06:26:56;4.18;;;3.45;;
21814;SDS011;11069;48.988;8.450;2023-05-07T06:29:23;4.85;;;3.55;;
21814;SDS011;11069;48.988;8.450;2023-05-07T06:31:50;3.60;;;3.30;;
21814;SDS011;11069;48.988;8.450;2023-05-07T06:34:16;3.83;;;3.30;;
21814;SDS011;11069;48.988;8.450;2023-05-07T06:36:42;4.70;;;3.17;;
21814;SDS011;11069;48.988;8.450;2023-05-07T06:39:08;5.95;;;2.92;;
21814;SDS011;11069;48.988;8.450;2023-05-07T06:41:34;6.97;;;3.40;;
21814;SDS011;11069;48.988;8.450;2023-05-07T06:44:01;3.13;;;2.83;;
21814;SDS011;11069;48.988;8.450;2023-05-07T06:46:27;3.67;;;3.20;;
21814;SDS011;11069;48.988;8.450;2023-05-07T06:48:53;4.95;;;3.03;;
21814;SDS011;11069;48.988;8.450;2023-05-07T06:51:19;3.35;;;3.05;;
21814;SDS011;11069;48.988;8.450;2023-05-07T06:53:45;3.88;;;3.00;;
21814;SDS011;11069;48.988;8.450;2023-05-07T06:56:11;4.88;;;3.13;;
21814;SDS011;11069;48.988;8.450;2023-05-07T06:58:37;3.20;;;2.70;;
21814;SDS011;11069;48.988;8.450;2023-05-07T07:01:03;4.78;;;2.88;;
21814;SDS011;11069;48.988;8.450;2023-05-07T07:03:29;3.10;;;2.80;;
21814;SDS011;11069;48.988;8.450;2023-05-07T07:05:56;3.10;;;2.80;;
21814;SDS011;11069;48.988;8.450;2023-05-07T07:08:22;2.90;;;2.60;;
21814;SDS011;11069;48.988;8.450;2023-05-07T07:10:48;3.45;;;2.90;;
21814;SDS011;11069;48.988;8.450;2023-05-07T07:13:14;5.20;;;3.30;;
21814;SDS011;11069;48.988;8.450;2023-05-07T07:15:40;3.38;;;2.75;;
21814;SDS011;11069;48.988;8.450;2023-05-07T07:18:06;2.75;;;2.47;;
21814;SDS011;11069;48.988;8.450;2023-05-07T07:20:32;2.50;;;2.30;;
21814;SDS011;11069;48.988;8.450;2023-05-07T07:22:58;3.50;;;2.38;;
21814;SDS011;11069;48.988;8.450;2023-05-07T07:25:24;3.17;;;2.80;;
21814;SDS011;11069;48.988;8.450;2023-05-07T07:27:50;3.95;;;2.30;;
21814;SDS011;11069;48.988;8.450;2023-05-07T07:30:16;3.20;;;2.50;;
21814;SDS011;11069;48.988;8.450;2023-05-07T07:32:42;3.55;;;2.50;;
21814;SDS011;11069;48.988;8.450;2023-05-07T07:35:08;3.40;;;2.42;;
21814;SDS011;11069;48.988;8.450;2023-05-07T07:37:34;3.85;;;2.10;;
21814;SDS011;11069;48.988;8.450;2023-05-07T07:40:00;4.20;;;2.20;;
21814;SDS011;11069;48.988;8.450;2023-05-07T07:42:26;3.67;;;2.17;;
21814;SDS011;11069;48.988;8.450;2023-05-07T07:44:54;3.80;;;2.30;;
21814;SDS011;11069;48.988;8.450;2023-05-07T07:47:20;2.63;;;2.25;;
21814;SDS011;11069;48.988;8.450;2023-05-07T07:49:46;2.80;;;2.15;;
21814;SDS011;11069;48.988;8.450;2023-05-07T07:52:12;3.55;;;2.67;;
21814;SDS011;11069;48.988;8.450;2023-05-07T07:54:38;2.83;;;2.35;;
21814;SDS011;11069;48.988;8.450;2023-05-07T07:57:03;3.17;;;2.78;;
21814;SDS011;11069;48.988;8.450;2023-05-07T07:59:30;3.75;;;2.45;;
21814;SDS011;11069;48.988;8.450;2023-05-07T08:01:55;2.85;;;2.13;;
21814;SDS011;11069;48.988;8.450;2023-05-07T08:04:22;3.05;;;1.90;;
21814;SDS011;11069;48.988;8.450;2023-05-07T08:06:48;4.10;;;2.50;;
21814;SDS011;11069;48.988;8.450;2023-05-07T08:09:14;4.30;;;2.30;;
21814;SDS011;11069;48.988;8.450;2023-05-07T08:11:40;4.85;;;2.53;;
21814;SDS011;11069;48.988;8.450;2023-05-07T08:14:06;4.25;;;2.15;;
21814;SDS011;11069;48.988;8.450;2023-05-07T08:16:32;2.65;;;2.10;;
21814;SDS011;11069;48.988;8.450;2023-05-07T08:18:58;3.85;;;2.50;;
21814;SDS011;11069;48.988;8.450;2023-05-07T08:21:24;2.22;;;2.03;;
21814;SDS011;11069;48.988;8.450;2023-05-07T08:23:51;3.78;;;2.60;;
21814;SDS011;11069;48.988;8.450;2023-05-07T08:26:17;3.30;;;2.20;;
21814;SDS011;11069;48.988;8.450;2023-05-07T08:28:42;4.55;;;2.15;;
21814;SDS011;11069;48.988;8.450;2023-05-07T08:31:08;3.80;;;2.40;;
21814;SDS011;11069;48.988;8.450;2023-05-07T08:33:34;3.28;;;2.28;;
21814;SDS011;11069;48.988;8.450;2023-05-07T08:36:00;2.92;;;2.08;;
21814;SDS011;11069;48.988;8.450;2023-05-07T08:38:26;2.30;;;2.08;;
21814;SDS011;11069;48.988;8.450;2023-05-07T08:40:52;3.15;;;2.50;;
21814;SDS011;11069;48.988;8.450;2023-05-07T08:43:18;2.60;;;2.40;;
21814;SDS011;11069;48.988;8.450;2023-05-07T08:45:45;3.30;;;2.40;;
21814;SDS011;11069;48.988;8.450;2023-05-07T08:48:15;3.13;;;2.35;;
21814;SDS011;11069;48.988;8.450;2023-05-07T08:50:41;2.93;;;2.30;;
21814;SDS011;11069;48.988;8.450;2023-05-07T08:53:07;4.70;;;2.42;;
21814;SDS011;11069;48.988;8.450;2023-05-07T08:55:33;2.75;;;1.98;;
21814;SDS011;11069;48.988;8.450;2023-05-07T08:57:59;3.30;;;2.42;;
21814;SDS011;11069;48.988;8.450;2023-05-07T09:00:26;2.83;;;2.50;;
21814;SDS011;11069;48.988;8.450;2023-05-07T09:02:52;3.70;;;2.55;;
21814;SDS011;11069;48.988;8.450;2023-05-07T09:05:19;2.45;;;2.20;;
21814;SDS011;11069;48.988;8.450;2023-05-07T09:07:45;3.53;;;2.30;;
21814;SDS011;11069;48.988;8.450;2023-05-07T09:10:11;2.50;;;2.30;;
21814;SDS011;11069;48.988;8.450;2023-05-07T09:12:38;4.30;;;2.08;;
21814;SDS011;11069;48.988;8.450;2023-05-07T09:15:04;4.07;;;2.03;;
21814;SDS011;11069;48.988;8.450;2023-05-07T09:17:30;5.32;;;2.10;;
21814;SDS011;11069;48.988;8.450;2023-05-07T09:19:56;2.35;;;2.15;;
21814;SDS011;11069;48.988;8.450;2023-05-07T09:22:28;2.97;;;2.40;;
21814;SDS011;11069;48.988;8.450;2023-05-07T09:24:54;4.15;;;2.40;;
21814;SDS011;11069;48.988;8.450;2023-05-07T09:27:20;3.03;;;2.30;;
21814;SDS011;11069;48.988;8.450;2023-05-07T09:29:46;2.70;;;2.20;;
21814;SDS011;11069;48.988;8.450;2023-05-07T09:32:12;3.17;;;2.47;;
21814;SDS011;11069;48.988;8.450;2023-05-07T09:34:39;2.65;;;2.42;;
21814;SDS011;11069;48.988;8.450;2023-05-07T09:37:06;4.15;;;2.03;;
21814;SDS011;11069;48.988;8.450;2023-05-07T09:39:42;2.30;;;2.10;;
21814;SDS011;11069;48.988;8.450;2023-05-07T09:42:08;2.75;;;2.40;;
21814;SDS011;11069;48.988;8.450;2023-05-07T09:44:36;2.38;;;2.10;;
21814;SDS011;11069;48.988;8.450;2023-05-07T09:47:03;2.42;;;1.98;;
21814;SDS011;11069;48.988;8.450;2023-05-07T09:49:30;2.60;;;2.40;;
21814;SDS011;11069;48.988;8.450;2023-05-07T09:51:59;4.60;;;2.13;;
21814;SDS011;11069;48.988;8.450;2023-05-07T09:54:26;3.92;;;2.30;;
21814;SDS011;11069;48.988;8.450;2023-05-07T09:56:54;2.35;;;2.15;;
21814;SDS011;11069;48.988;8.450;2023-05-07T09:59:21;3.55;;;2.33;;
21814;SDS011;11069;48.988;8.450;2023-05-07T10:01:47;3.88;;;2.15;;
21814;SDS011;11069;48.988;8.450;2023-05-07T10:04:13;3.40;;;1.95;;
21814;SDS011;11069;48.988;8.450;2023-05-07T10:06:40;3.97;;;2.60;;
21814;SDS011;11069;48.988;8.450;2023-05-07T10:09:06;4.25;;;2.30;;
21814;SDS011;11069;48.988;8.450;2023-05-07T10:11:33;2.08;;;1.88;;
21814;SDS011;11069;48.988;8.450;2023-05-07T10:14:00;2.38;;;2.13;;
21814;SDS011;11069;48.988;8.450;2023-05-07T10:16:27;3.45;;;2.35;;
21814;SDS011;11069;48.988;8.450;2023-05-07T10:18:53;3.03;;;2.30;;
21814;SDS011;11069;48.988;8.450;2023-05-07T10:21:20;2.35;;;2.15;;
21814;SDS011;11069;48.988;8.450;2023-05-07T10:23:57;3.25;;;2.53;;
21814;SDS011;11069;48.988;8.450;2023-05-07T10:26:23;2.50;;;2.20;;
21814;SDS011;11069;48.988;8.450;2023-05-07T10:28:51;3.20;;;2.20;;
21814;SDS011;11069;48.988;8.450;2023-05-07T10:33:47;5.07;;;2.30;;
21814;SDS011;11069;48.988;8.450;2023-05-07T10:36:15;3.78;;;2.28;;
21814;SDS011;11069;48.988;8.450;2023-05-07T10:38:41;4.28;;;2.67;;
21814;SDS011;11069;48.988;8.450;2023-05-07T10:41:07;2.97;;;2.25;;
21814;SDS011;11069;48.988;8.450;2023-05-07T10:43:40;2.60;;;2.35;;
21814;SDS011;11069;48.988;8.450;2023-05-07T10:46:18;2.55;;;2.35;;
21814;SDS011;11069;48.988;8.450;2023-05-07T10:51:26;3.63;;;2.60;;
21814;SDS011;11069;48.988;8.450;2023-05-07T10:56:33;3.45;;;2.38;;
21814;SDS011;11069;48.988;8.450;2023-05-07T10:59:24;2.30;;;2.10;;
21814;SDS011;11069;48.988;8.450;2023-05-07T11:01:55;2.13;;;1.90;;
21814;SDS011;11069;48.988;8.450;2023-05-07T11:04:22;3.25;;;2.20;;
21814;SDS011;11069;48.988;8.450;2023-05-07T11:12:15;2.83;;;2.10;;
21814;SDS011;11069;48.988;8.450;2023-05-07T11:17:10;4.72;;;2.30;;
21814;SDS011;11069;48.988;8.450;2023-05-07T11:19:53;3.88;;;2.30;;
21814;SDS011;11069;48.988;8.450;2023-05-07T11:22:35;3.53;;;2.00;;
21814;SDS011;11069;48.988;8.450;2023-05-07T11:25:04;2.20;;;1.98;;
21814;SDS011;11069;48.988;8.450;2023-05-07T11:27:31;2.72;;;1.95;;
21814;SDS011;11069;48.988;8.450;2023-05-07T11:29:57;2.60;;;2.20;;
21814;SDS011;11069;48.988;8.450;2023-05-07T11:32:30;3.78;;;2.17;;
21814;SDS011;11069;48.988;8.450;2023-05-07T11:34:57;2.78;;;2.40;;
21814;SDS011;11069;48.988;8.450;2023-05-07T11:37:24;6.82;;;2.30;;
21814;SDS011;11069;48.988;8.450;2023-05-07T11:39:51;4.25;;;1.98;;
21814;SDS011;11069;48.988;8.450;2023-05-07T11:42:28;2.10;;;1.90;;
21814;SDS011;11069;48.988;8.450;2023-05-07T11:44:54;2.20;;;1.88;;
21814;SDS011;11069;48.988;8.450;2023-05-07T11:47:20;4.53;;;2.53;;
21814;SDS011;11069;48.988;8.450;2023-05-07T11:49:47;2.05;;;1.80;;
21814;SDS011;11069;48.988;8.450;2023-05-07T11:52:14;3.67;;;2.30;;
21814;SDS011;11069;48.988;8.450;2023-05-07T11:54:40;2.55;;;1.70;;
21814;SDS011;11069;48.988;8.450;2023-05-07T11:57:06;2.45;;;1.88;;
21814;SDS011;11069;48.988;8.450;2023-05-07T11:59:41;2.85;;;2.17;;
21814;SDS011;11069;48.988;8.450;2023-05-07T12:02:09;1.80;;;1.70;;
21814;SDS011;11069;48.988;8.450;2023-05-07T12:04:35;2.83;;;2.17;;
21814;SDS011;11069;48.988;8.450;2023-05-07T12:07:01;2.85;;;2.15;;
21814;SDS011;11069;48.988;8.450;2023-05-07T12:09:27;2.30;;;2.10;;
21814;SDS011;11069;48.988;8.450;2023-05-07T12:11:53;2.65;;;2.10;;
21814;SDS011;11069;48.988;8.450;2023-05-07T12:14:21;2.67;;;2.10;;
21814;SDS011;11069;48.988;8.450;2023-05-07T12:16:47;3.20;;;2.25;;
21814;SDS011;11069;48.988;8.450;2023-05-07T12:19:13;2.50;;;2.17;;
21814;SDS011;11069;48.988;8.450;2023-05-07T12:21:39;5.68;;;2.50;;
21814;SDS011;11069;48.988;8.450;2023-05-07T12:24:06;2.42;;;2.08;;
21814;SDS011;11069;48.988;8.450;2023-05-07T12:26:32;2.30;;;2.10;;
21814;SDS011;11069;48.988;8.450;2023-05-07T12:28:58;3.25;;;2.47;;
21814;SDS011;11069;48.988;8.450;2023-05-07T12:31:26;3.65;;;2.40;;
21814;SDS011;11069;48.988;8.450;2023-05-07T12:33:52;2.97;;;2.20;;
21814;SDS011;11069;48.988;8.450;2023-05-07T12:36:18;2.72;;;2.00;;
21814;SDS011;11069;48.988;8.450;2023-05-07T12:38:46;2.13;;;1.92;;
21814;SDS011;11069;48.988;8.450;2023-05-07T12:41:14;3.42;;;2.17;;
21814;SDS011;11069;48.988;8.450;2023-05-07T12:43:43;2.85;;;2.20;;
21814;SDS011;11069;48.988;8.450;2023-05-07T12:46:10;1.98;;;1.88;;
21814;SDS011;11069;48.988;8.450;2023-05-07T12:48:38;3.92;;;2.50;;
21814;SDS011;11069;48.988;8.450;2023-05-07T12:53:39;2.30;;;2.10;;
21814;SDS011;11069;48.988;8.450;2023-05-07T12:56:05;4.00;;;3.08;;
21814;SDS011;11069;48.988;8.450;2023-05-07T12:58:33;3.75;;;2.20;;
21814;SDS011;11069;48.988;8.450;2023-05-07T13:00:59;4.05;;;1.90;;
21814;SDS011;11069;48.988;8.450;2023-05-07T13:05:52;3.67;;;1.85;;
21814;SDS011;11069;48.988;8.450;2023-05-07T13:08:31;3.55;;;2.63;;
21814;SDS011;11069;48.988;8.450;2023-05-07T13:10:59;4.90;;;3.03;;
21814;SDS011;11069;48.988;8.450;2023-05-07T13:13:28;2.50;;;2.30;;
21814;SDS011;11069;48.988;8.450;2023-05-07T13:15:54;2.95;;;2.38;;
21814;SDS011;11069;48.988;8.450;2023-05-07T13:18:20;4.05;;;2.70;;
21814;SDS011;11069;48.988;8.450;2023-05-07T13:20:46;3.00;;;2.53;;
21814;SDS011;11069;48.988;8.450;2023-05-07T13:23:12;2.78;;;2.47;;
21814;SDS011;11069;48.988;8.450;2023-05-07T13:25:38;3.53;;;2.72;;
21814;SDS011;11069;48.988;8.450;2023-05-07T13:28:04;4.97;;;2.30;;
21814;SDS011;11069;48.988;8.450;2023-05-07T13:30:30;4.30;;;2.60;;
21814;SDS011;11069;48.988;8.450;2023-05-07T13:32:56;3.40;;;2.22;;
21814;SDS011;11069;48.988;8.450;2023-05-07T13:35:22;2.95;;;2.35;;
21814;SDS011;11069;48.988;8.450;2023-05-07T13:37:49;5.63;;;2.40;;
21814;SDS011;11069;48.988;8.450;2023-05-07T13:40:15;7.75;;;2.70;;
21814;SDS011;11069;48.988;8.450;2023-05-07T13:42:41;4.35;;;2.30;;
21814;SDS011;11069;48.988;8.450;2023-05-07T13:45:07;2.97;;;2.50;;
21814;SDS011;11069;48.988;8.450;2023-05-07T13:47:33;6.10;;;2.80;;
21814;SDS011;11069;48.988;8.450;2023-05-07T13:50:00;4.35;;;2.38;;
21814;SDS011;11069;48.988;8.450;2023-05-07T13:52:26;3.75;;;2.70;;
21814;SDS011;11069;48.988;8.450;2023-05-07T13:54:52;6.10;;;3.10;;
21814;SDS011;11069;48.988;8.450;2023-05-07T13:57:18;0.93;;;0.80;;
21814;SDS011;11069;48.988;8.450;2023-05-07T13:59:46;2.55;;;0.57;;
21814;SDS011;11069;48.988;8.450;2023-05-07T14:02:12;1.10;;;0.70;;
21814;SDS011;11069;48.988;8.450;2023-05-07T14:04:38;1.00;;;0.90;;
21814;SDS011;11069;48.988;8.450;2023-05-07T14:07:04;1.33;;;0.70;;
21814;SDS011;11069;48.988;8.450;2023-05-07T14:09:30;2.38;;;1.00;;
21814;SDS011;11069;48.988;8.450;2023-05-07T14:11:56;0.70;;;0.70;;
21814;SDS011;11069;48.988;8.450;2023-05-07T14:14:22;1.55;;;0.77;;
21814;SDS011;11069;48.988;8.450;2023-05-07T14:16:48;1.42;;;0.70;;
21814;SDS011;11069;48.988;8.450;2023-05-07T14:19:14;1.05;;;0.90;;
21814;SDS011;11069;48.988;8.450;2023-05-07T14:21:40;1.00;;;0.90;;
21814;SDS011;11069;48.988;8.450;2023-05-07T14:24:07;1.65;;;0.70;;
21814;SDS011;11069;48.988;8.450;2023-05-07T14:26:36;0.95;;;0.85;;
21814;SDS011;11069;48.988;8.450;2023-05-07T14:29:02;1.02;;;0.82;;
21814;SDS011;11069;48.988;8.450;2023-05-07T14:31:28;1.10;;;0.90;;
21814;SDS011;11069;48.988;8.450;2023-05-07T14:33:54;0.85;;;0.85;;
21814;SDS011;11069;48.988;8.450;2023-05-07T14:36:22;1.90;;;0.90;;
21814;SDS011;11069;48.988;8.450;2023-05-07T14:38:51;2.40;;;1.40;;
21814;SDS011;11069;48.988;8.450;2023-05-07T14:41:17;0.95;;;0.80;;
21814;SDS011;11069;48.988;8.450;2023-05-07T14:43:43;1.80;;;0.90;;
21814;SDS011;11069;48.988;8.450;2023-05-07T14:46:14;1.58;;;0.90;;
21814;SDS011;11069;48.988;8.450;2023-05-07T14:48:41;2.78;;;1.23;;
21814;SDS011;11069;48.988;8.450;2023-05-07T14:51:07;0.98;;;0.88;;
21814;SDS011;11069;48.988;8.450;2023-05-07T14:53:33;1.00;;;0.90;;
21814;SDS011;11069;48.988;8.450;2023-05-07T14:55:59;1.88;;;1.15;;
21814;SDS011;11069;48.988;8.450;2023-05-07T14:58:25;1.00;;;0.90;;
21814;SDS011;11069;48.988;8.450;2023-05-07T15:00:51;1.83;;;1.10;;
21814;SDS011;11069;48.988;8.450;2023-05-07T15:03:17;2.30;;;0.90;;
21814;SDS011;11069;48.988;8.450;2023-05-07T15:05:43;2.03;;;0.98;;